createdAt,value
2019-02-24T00:02:10.281Z,20.90
2019-02-24T00:04:36.788Z,18.20
2019-02-24T00:07:03.161Z,18.43
2019-02-24T00:09:29.566Z,19.30
2019-02-24T00:11:55.907Z,19.47
2019-02-24T00:14:22.272Z,19.60
2019-02-24T00:16:48.627Z,19.43
2019-02-24T00:19:15.019Z,18.07
2019-02-24T00:21:41.357Z,19.83
2019-02-24T00:24:07.735Z,19.83
2019-02-24T00:26:34.120Z,17.57
2019-02-24T00:29:03.727Z,18.07
2019-02-24T00:31:30.061Z,18.27
2019-02-24T00:33:56.471Z,19.57
2019-02-24T00:36:22.830Z,19.17
2019-02-24T00:38:49.154Z,17.43
2019-02-24T00:41:15.503Z,17.93
2019-02-24T00:43:41.912Z,17.07
2019-02-24T00:46:08.251Z,18.27
2019-02-24T00:48:34.619Z,19.13
2019-02-24T00:51:00.952Z,17.57
2019-02-24T00:53:27.359Z,18.57
2019-02-24T00:55:53.814Z,17.60
2019-02-24T00:58:21.154Z,17.93
2019-02-24T01:00:47.509Z,16.53
2019-02-24T01:03:13.860Z,17.13
2019-02-24T01:05:40.229Z,17.60
2019-02-24T01:08:06.736Z,17.93
2019-02-24T01:10:33.132Z,16.63
2019-02-24T01:13:02.598Z,17.93
2019-02-24T01:15:29.010Z,18.90
2019-02-24T01:17:55.462Z,19.00
2019-02-24T01:20:21.797Z,18.43
2019-02-24T01:22:48.213Z,16.83
2019-02-24T01:25:14.552Z,18.43
2019-02-24T01:27:40.939Z,18.30
2019-02-24T01:30:09.433Z,17.03
2019-02-24T01:32:35.819Z,17.67
2019-02-24T01:35:02.426Z,16.67
2019-02-24T01:37:28.743Z,16.43
2019-02-24T01:39:55.129Z,15.93
2019-02-24T01:42:21.484Z,16.83
2019-02-24T01:44:47.898Z,16.63
2019-02-24T01:47:14.248Z,17.23
2019-02-24T01:49:40.617Z,15.53
2019-02-24T01:52:07.465Z,17.43
2019-02-24T01:54:33.838Z,19.07
2019-02-24T01:57:00.162Z,16.67
2019-02-24T01:59:26.516Z,17.03
2019-02-24T02:01:52.850Z,15.37
2019-02-24T02:04:19.231Z,15.73
2019-02-24T02:06:45.569Z,16.93
2019-02-24T02:09:11.981Z,16.20
2019-02-24T02:11:38.292Z,16.40
2019-02-24T02:14:04.643Z,17.43
2019-02-24T02:16:30.982Z,16.33
2019-02-24T02:18:57.363Z,16.43
2019-02-24T02:21:23.741Z,16.57
2019-02-24T02:23:50.203Z,17.00
2019-02-24T02:26:16.605Z,17.30
2019-02-24T02:28:44.221Z,17.10
2019-02-24T02:31:10.763Z,15.17
2019-02-24T02:33:37.398Z,16.17
2019-02-24T02:36:03.741Z,15.23
2019-02-24T02:38:30.063Z,14.97
2019-02-24T02:40:56.427Z,15.17
2019-02-24T02:43:22.801Z,15.00
2019-02-24T02:45:49.175Z,15.43
2019-02-24T02:48:15.615Z,16.27
2019-02-24T02:50:42.080Z,15.20
2019-02-24T02:53:08.508Z,16.43
2019-02-24T02:55:34.879Z,15.17
2019-02-24T02:58:01.228Z,15.93
2019-02-24T03:00:30.450Z,16.27
2019-02-24T03:02:56.896Z,15.10
2019-02-24T03:05:23.560Z,15.00
2019-02-24T03:07:51.838Z,14.27
2019-02-24T03:10:18.215Z,15.00
2019-02-24T03:12:44.582Z,13.77
2019-02-24T03:15:10.933Z,14.57
2019-02-24T03:17:37.272Z,14.17
2019-02-24T03:20:03.764Z,16.10
2019-02-24T03:22:30.260Z,14.80
2019-02-24T03:24:56.654Z,14.33
2019-02-24T03:27:23.006Z,14.17
2019-02-24T03:29:49.420Z,13.10
2019-02-24T03:32:15.727Z,14.00
2019-02-24T03:34:42.089Z,14.30
2019-02-24T03:37:08.426Z,13.27
2019-02-24T03:39:34.802Z,14.77
2019-02-24T03:42:01.140Z,13.60
2019-02-24T03:44:27.622Z,14.13
2019-02-24T03:46:53.969Z,13.50
2019-02-24T03:49:20.349Z,14.80
2019-02-24T03:51:46.731Z,14.67
2019-02-24T03:54:13.143Z,13.30
2019-02-24T03:56:39.642Z,13.37
2019-02-24T03:59:14.806Z,13.00
2019-02-24T04:01:34.282Z,13.47
2019-02-24T04:04:00.629Z,12.63
2019-02-24T04:06:26.988Z,13.23
2019-02-24T04:08:53.392Z,12.63
2019-02-24T04:11:19.742Z,13.73
2019-02-24T04:13:46.122Z,13.50
2019-02-24T04:16:12.436Z,14.77
2019-02-24T04:18:38.891Z,12.93
2019-02-24T04:21:05.184Z,13.93
2019-02-24T04:23:31.525Z,15.13
2019-02-24T04:25:57.958Z,14.30
2019-02-24T04:28:24.371Z,12.70
2019-02-24T04:30:50.780Z,13.80
2019-02-24T04:33:17.160Z,13.20
2019-02-24T04:35:43.562Z,14.23
2019-02-24T04:38:09.874Z,13.10
2019-02-24T04:40:36.273Z,12.77
2019-02-24T04:43:02.620Z,13.20
2019-02-24T04:45:28.972Z,13.07
2019-02-24T04:47:55.444Z,12.97
2019-02-24T04:50:21.855Z,12.97
2019-02-24T04:52:49.268Z,12.93
2019-02-24T04:55:15.650Z,13.87
2019-02-24T04:57:42.015Z,13.03
2019-02-24T05:00:08.784Z,19.10
2019-02-24T05:02:35.174Z,13.40
2019-02-24T05:05:01.541Z,13.27
2019-02-24T05:07:27.910Z,12.27
2019-02-24T05:09:54.208Z,12.73
2019-02-24T05:12:20.590Z,13.20
2019-02-24T05:14:46.954Z,12.53
2019-02-24T05:17:13.343Z,13.67
2019-02-24T05:19:39.685Z,13.70
2019-02-24T05:22:06.088Z,13.77
2019-02-24T05:24:32.382Z,14.77
2019-02-24T05:26:58.818Z,13.70
2019-02-24T05:29:25.208Z,12.10
2019-02-24T05:31:51.555Z,12.53
2019-02-24T05:34:17.913Z,14.93
2019-02-24T05:36:44.272Z,15.00
2019-02-24T05:39:10.649Z,14.70
2019-02-24T05:41:36.968Z,13.70
2019-02-24T05:44:03.352Z,13.83
2019-02-24T05:46:29.689Z,13.60
2019-02-24T05:48:56.112Z,13.00
2019-02-24T05:51:22.439Z,13.70
2019-02-24T05:53:48.812Z,13.63
2019-02-24T05:56:15.151Z,13.97
2019-02-24T05:58:41.580Z,12.83
2019-02-24T06:01:14.477Z,14.17
2019-02-24T06:03:40.877Z,13.80
2019-02-24T06:06:07.281Z,13.73
2019-02-24T06:08:33.699Z,13.70
2019-02-24T06:11:00.116Z,14.87
2019-02-24T06:13:26.511Z,15.10
2019-02-24T06:15:53.227Z,16.40
2019-02-24T06:18:19.815Z,15.63
2019-02-24T06:20:46.220Z,14.63
2019-02-24T06:23:12.577Z,15.17
2019-02-24T06:25:38.952Z,14.60
2019-02-24T06:28:05.428Z,15.40
2019-02-24T06:30:31.832Z,15.50
2019-02-24T06:32:58.247Z,17.10
2019-02-24T06:35:25.628Z,15.10
2019-02-24T06:37:53.048Z,15.83
2019-02-24T06:40:19.412Z,14.17
2019-02-24T06:42:45.839Z,13.87
2019-02-24T06:45:13.380Z,13.37
2019-02-24T06:47:39.959Z,14.77
2019-02-24T06:50:07.933Z,14.87
2019-02-24T06:52:34.463Z,15.63
2019-02-24T06:55:00.855Z,14.70
2019-02-24T06:57:27.545Z,13.50
2019-02-24T06:59:53.961Z,14.03
2019-02-24T07:02:20.399Z,14.90
2019-02-24T07:04:46.747Z,16.73
2019-02-24T07:07:13.133Z,15.47
2019-02-24T07:09:39.880Z,15.10
2019-02-24T07:12:06.979Z,13.37
2019-02-24T07:14:35.075Z,13.40
2019-02-24T07:17:01.805Z,14.93
2019-02-24T07:19:28.352Z,15.17
2019-02-24T07:21:54.853Z,22.37
2019-02-24T07:24:21.342Z,25.63
2019-02-24T07:26:47.793Z,34.10
2019-02-24T07:29:14.231Z,30.57
2019-02-24T07:31:40.650Z,21.77
2019-02-24T07:34:07.024Z,13.57
2019-02-24T07:36:33.411Z,13.63
2019-02-24T07:38:59.789Z,14.67
2019-02-24T07:41:26.198Z,14.37
2019-02-24T07:43:52.562Z,30.80
2019-02-24T07:46:19.067Z,19.33
2019-02-24T07:48:45.405Z,16.40
2019-02-24T07:51:12.471Z,14.10
2019-02-24T07:53:38.949Z,17.57
2019-02-24T07:56:05.810Z,13.80
2019-02-24T07:58:32.500Z,14.60
2019-02-24T08:00:59.064Z,13.37
2019-02-24T08:03:25.544Z,18.73
2019-02-24T08:05:51.938Z,23.23
2019-02-24T08:08:18.311Z,19.80
2019-02-24T08:10:44.762Z,18.73
2019-02-24T08:13:11.241Z,13.27
2019-02-24T08:15:37.655Z,14.33
2019-02-24T08:18:04.119Z,23.30
2019-02-24T08:20:30.578Z,16.77
2019-02-24T08:22:57.046Z,35.67
2019-02-24T08:25:23.450Z,43.77
2019-02-24T08:27:49.946Z,41.13
2019-02-24T08:30:17.518Z,50.03
2019-02-24T08:32:44.008Z,50.43
2019-02-24T08:35:10.383Z,97.67
2019-02-24T08:37:36.924Z,162.33
2019-02-24T08:40:05.846Z,78.93
2019-02-24T08:42:32.207Z,40.07
2019-02-24T08:44:58.611Z,30.53
2019-02-24T08:47:24.996Z,32.47
2019-02-24T08:49:52.774Z,19.80
2019-02-24T08:52:19.179Z,28.63
2019-02-24T08:54:45.543Z,32.63
2019-02-24T08:57:11.946Z,33.50
2019-02-24T08:59:38.391Z,23.73
2019-02-24T09:02:04.821Z,27.83
2019-02-24T09:04:31.183Z,30.53
2019-02-24T09:06:57.568Z,22.67
2019-02-24T09:09:24.935Z,25.10
2019-02-24T09:11:51.284Z,24.77
2019-02-24T09:14:17.687Z,24.67
2019-02-24T09:16:44.292Z,24.40
2019-02-24T09:19:10.737Z,20.60
2019-02-24T09:21:37.222Z,23.50
2019-02-24T09:24:03.811Z,24.87
2019-02-24T09:26:30.910Z,20.20
2019-02-24T09:28:57.277Z,25.13
2019-02-24T09:31:23.644Z,26.57
2019-02-24T09:33:50.513Z,22.07
2019-02-24T09:36:17.886Z,26.90
2019-02-24T09:38:45.005Z,22.83
2019-02-24T09:41:12.485Z,25.00
2019-02-24T09:43:39.126Z,27.53
2019-02-24T09:46:06.257Z,27.37
2019-02-24T09:48:33.570Z,34.37
2019-02-24T09:51:00.001Z,45.23
2019-02-24T09:53:26.527Z,36.47
2019-02-24T09:55:53.224Z,36.27
2019-02-24T09:58:19.741Z,26.80
2019-02-24T10:00:46.616Z,27.13
2019-02-24T10:03:13.570Z,22.10
2019-02-24T10:05:40.188Z,31.40
2019-02-24T10:08:08.200Z,35.20
2019-02-24T10:10:35.648Z,37.73
2019-02-24T10:13:02.257Z,34.43
2019-02-24T10:15:29.732Z,38.07
2019-02-24T10:17:57.274Z,36.43
2019-02-24T10:20:24.753Z,47.73
2019-02-24T10:22:51.507Z,30.87
2019-02-24T10:25:17.892Z,32.17
2019-02-24T10:27:44.348Z,33.47
2019-02-24T10:30:12.576Z,29.10
2019-02-24T10:32:39.073Z,23.03
2019-02-24T10:35:06.259Z,25.27
2019-02-24T10:37:32.831Z,22.27
2019-02-24T10:39:59.271Z,22.30
2019-02-24T10:42:26.361Z,22.13
2019-02-24T10:44:53.344Z,28.33
2019-02-24T10:47:19.693Z,22.80
2019-02-24T10:49:46.222Z,26.17
2019-02-24T10:52:12.697Z,23.40
2019-02-24T10:54:39.378Z,28.23
2019-02-24T10:57:05.837Z,30.17
2019-02-24T10:59:32.451Z,27.73
2019-02-24T11:01:59.008Z,20.50
2019-02-24T11:04:25.499Z,24.70
2019-02-24T11:06:51.886Z,24.20
2019-02-24T11:09:18.461Z,18.90
2019-02-24T11:11:44.902Z,21.30
2019-02-24T11:14:11.600Z,23.87
2019-02-24T11:16:39.418Z,28.23
2019-02-24T11:19:05.910Z,29.30
2019-02-24T11:21:32.304Z,26.40
2019-02-24T11:23:58.754Z,24.63
2019-02-24T11:26:25.183Z,22.60
2019-02-24T11:28:51.586Z,19.73
2019-02-24T11:31:17.941Z,23.93
2019-02-24T11:33:44.554Z,25.27
2019-02-24T11:36:11.006Z,21.53
2019-02-24T11:38:37.407Z,21.20
2019-02-24T11:41:03.827Z,24.63
2019-02-24T11:43:30.193Z,33.77
2019-02-24T11:45:56.626Z,25.73
2019-02-24T11:48:22.979Z,26.57
2019-02-24T11:50:49.560Z,20.50
2019-02-24T11:53:15.906Z,25.80
2019-02-24T11:55:42.277Z,36.57
2019-02-24T11:58:08.697Z,21.90
2019-02-24T12:00:35.185Z,22.40
2019-02-24T12:03:01.543Z,23.83
2019-02-24T12:05:28.490Z,26.87
2019-02-24T12:07:54.875Z,24.53
2019-02-24T12:10:21.267Z,26.57
2019-02-24T12:12:47.773Z,21.57
2019-02-24T12:15:14.210Z,23.70
2019-02-24T12:17:40.882Z,24.70
2019-02-24T12:20:09.318Z,18.57
2019-02-24T12:22:35.723Z,17.23
2019-02-24T12:25:04.111Z,16.70
2019-02-24T12:27:30.462Z,21.10
2019-02-24T12:29:56.924Z,21.70
2019-02-24T12:32:23.364Z,17.77
2019-02-24T12:34:49.759Z,17.10
2019-02-24T12:37:17.458Z,14.73
2019-02-24T12:39:44.038Z,19.42
2019-02-24T12:42:11.297Z,18.45
2019-02-24T12:44:37.750Z,19.73
2019-02-24T12:47:04.199Z,14.90
2019-02-24T12:49:30.610Z,22.13
2019-02-24T12:51:57.392Z,17.57
2019-02-24T12:54:24.312Z,17.73
2019-02-24T12:56:51.304Z,19.97
2019-02-24T12:59:17.886Z,21.17
2019-02-24T13:01:44.472Z,37.40
2019-02-24T13:04:11.244Z,36.97
2019-02-24T13:06:38.039Z,23.03
2019-02-24T13:09:07.778Z,33.10
2019-02-24T13:11:35.337Z,26.70
2019-02-24T13:14:02.060Z,25.65
2019-02-24T13:16:28.803Z,26.62
2019-02-24T13:18:55.587Z,18.70
2019-02-24T13:21:22.876Z,22.98
2019-02-24T13:23:49.461Z,24.57
2019-02-24T13:26:15.937Z,24.85
2019-02-24T13:28:50.208Z,15.10
2019-02-24T13:31:10.643Z,16.57
2019-02-24T13:33:37.105Z,18.37
2019-02-24T13:36:04.525Z,18.92
2019-02-24T13:38:30.892Z,20.82
2019-02-24T13:40:57.352Z,21.30
2019-02-24T13:43:23.772Z,15.55
2019-02-24T13:45:50.209Z,21.65
2019-02-24T13:48:16.631Z,17.42
2019-02-24T13:50:43.079Z,17.32
2019-02-24T13:53:09.551Z,19.00
2019-02-24T13:55:36.374Z,24.70
2019-02-24T13:58:02.816Z,20.32
2019-02-24T14:00:29.232Z,18.52
2019-02-24T14:02:55.652Z,18.42
2019-02-24T14:05:22.189Z,21.47
2019-02-24T14:07:48.786Z,18.73
2019-02-24T14:10:15.204Z,17.27
2019-02-24T14:12:42.873Z,23.80
2019-02-24T14:15:10.979Z,16.00
2019-02-24T14:17:37.414Z,21.63
2019-02-24T14:20:07.218Z,26.13
2019-02-24T14:22:33.786Z,19.83
2019-02-24T14:25:00.327Z,30.13
2019-02-24T14:27:26.845Z,13.63
2019-02-24T14:29:53.344Z,25.47
2019-02-24T14:32:19.692Z,27.10
2019-02-24T14:34:47.202Z,17.47
2019-02-24T14:37:14.556Z,18.77
2019-02-24T14:39:41.945Z,15.20
2019-02-24T14:42:09.808Z,22.67
2019-02-24T14:44:37.321Z,22.20
2019-02-24T14:47:04.035Z,18.33
2019-02-24T14:49:30.515Z,12.63
2019-02-24T14:51:56.966Z,13.33
2019-02-24T14:54:25.716Z,20.90
2019-02-24T14:56:52.969Z,9.67
2019-02-24T14:59:20.582Z,13.80
2019-02-24T15:01:47.955Z,17.30
2019-02-24T15:04:14.575Z,13.77
2019-02-24T15:06:41.135Z,13.60
2019-02-24T15:09:08.102Z,17.17
2019-02-24T15:11:36.206Z,14.90
2019-02-24T15:14:03.498Z,16.63
2019-02-24T15:16:29.887Z,14.93
2019-02-24T15:18:56.429Z,21.60
2019-02-24T15:21:22.962Z,24.43
2019-02-24T15:23:49.323Z,24.60
2019-02-24T15:26:15.836Z,16.73
2019-02-24T15:28:42.192Z,24.47
2019-02-24T15:31:09.799Z,26.30
2019-02-24T15:33:36.241Z,40.00
2019-02-24T15:36:02.779Z,44.87
2019-02-24T15:38:29.191Z,28.77
2019-02-24T15:40:55.537Z,29.93
2019-02-24T15:43:21.970Z,43.77
2019-02-24T15:45:48.338Z,33.10
2019-02-24T15:48:14.768Z,42.50
2019-02-24T15:50:42.175Z,44.83
2019-02-24T15:53:08.663Z,55.70
2019-02-24T15:55:35.108Z,62.73
2019-02-24T15:58:01.591Z,57.93
2019-02-24T16:00:27.999Z,50.03
2019-02-24T16:03:01.093Z,51.67
2019-02-24T16:05:22.616Z,52.53
2019-02-24T16:07:48.989Z,50.23
2019-02-24T16:10:16.940Z,43.80
2019-02-24T16:12:43.396Z,42.87
2019-02-24T16:15:11.944Z,81.30
2019-02-24T16:17:38.405Z,103.03
2019-02-24T16:20:24.389Z,97.20
2019-02-24T16:22:50.793Z,70.57
2019-02-24T16:25:17.275Z,58.10
2019-02-24T16:27:43.694Z,76.20
2019-02-24T16:30:13.383Z,87.20
2019-02-24T16:32:41.003Z,97.60
2019-02-24T16:35:12.691Z,90.73
2019-02-24T16:37:39.167Z,94.20
2019-02-24T16:40:23.825Z,59.73
2019-02-24T16:42:50.406Z,27.97
2019-02-24T16:45:16.947Z,24.83
2019-02-24T16:47:43.646Z,32.00
2019-02-24T16:50:12.253Z,49.93
2019-02-24T16:52:38.604Z,79.77
2019-02-24T16:55:08.714Z,66.13
2019-02-24T16:57:35.082Z,68.53
2019-02-24T17:00:04.089Z,77.43
2019-02-24T17:02:31.002Z,76.40
2019-02-24T17:04:58.519Z,35.30
2019-02-24T17:07:24.907Z,41.13
2019-02-24T17:09:51.407Z,40.77
2019-02-24T17:12:19.025Z,36.03
2019-02-24T17:14:54.860Z,19.27
2019-02-24T17:17:21.214Z,11.43
2019-02-24T17:19:47.586Z,13.90
2019-02-24T17:22:14.009Z,17.23
2019-02-24T17:24:40.433Z,22.60
2019-02-24T17:27:08.141Z,16.07
2019-02-24T17:29:34.604Z,11.53
2019-02-24T17:32:01.052Z,12.83
2019-02-24T17:34:27.478Z,18.00
2019-02-24T17:36:53.861Z,18.10
2019-02-24T17:39:20.409Z,37.07
2019-02-24T17:41:46.804Z,84.30
2019-02-24T17:44:13.203Z,83.43
2019-02-24T17:46:39.597Z,89.23
2019-02-24T17:49:05.986Z,71.83
2019-02-24T17:51:32.390Z,50.70
2019-02-24T17:53:58.852Z,28.03
2019-02-24T17:56:26.620Z,20.83
2019-02-24T17:58:53.080Z,20.37
2019-02-24T18:01:19.517Z,22.63
2019-02-24T18:03:45.927Z,14.37
2019-02-24T18:06:12.396Z,15.13
2019-02-24T18:08:38.782Z,11.57
2019-02-24T18:11:05.164Z,15.90
2019-02-24T18:13:31.577Z,16.67
2019-02-24T18:15:58.016Z,17.47
2019-02-24T18:18:24.424Z,17.23
2019-02-24T18:20:50.815Z,17.13
2019-02-24T18:23:17.314Z,17.00
2019-02-24T18:25:43.883Z,19.13
2019-02-24T18:28:10.344Z,19.00
2019-02-24T18:30:36.747Z,20.10
2019-02-24T18:33:03.163Z,17.27
2019-02-24T18:35:29.557Z,16.77
2019-02-24T18:37:56.207Z,10.63
2019-02-24T18:40:22.802Z,9.17
2019-02-24T18:42:49.404Z,10.43
2019-02-24T18:45:16.049Z,12.63
2019-02-24T18:47:42.500Z,14.10
2019-02-24T18:50:14.483Z,13.40
2019-02-24T18:52:40.996Z,14.80
2019-02-24T18:55:09.013Z,10.10
2019-02-24T18:57:35.415Z,9.67
2019-02-24T19:00:03.878Z,9.53
2019-02-24T19:02:32.134Z,9.93
2019-02-24T19:04:58.546Z,9.73
2019-02-24T19:07:24.925Z,9.50
2019-02-24T19:09:51.345Z,8.47
2019-02-24T19:12:17.723Z,8.83
2019-02-24T19:14:44.187Z,8.00
2019-02-24T19:17:10.659Z,9.83
2019-02-24T19:19:37.035Z,8.37
2019-02-24T19:22:03.473Z,10.00
2019-02-24T19:24:29.884Z,11.77
2019-02-24T19:26:56.361Z,18.63
2019-02-24T19:29:22.817Z,15.13
2019-02-24T19:31:49.291Z,16.40
2019-02-24T19:34:15.731Z,18.70
2019-02-24T19:36:42.155Z,19.00
2019-02-24T19:39:12.706Z,17.00
2019-02-24T19:41:39.543Z,13.23
2019-02-24T19:44:05.952Z,13.03
2019-02-24T19:46:32.339Z,13.00
2019-02-24T19:48:58.724Z,15.30
2019-02-24T19:51:25.126Z,15.97
2019-02-24T19:53:51.840Z,18.00
2019-02-24T19:56:18.377Z,16.23
2019-02-24T19:58:47.493Z,17.37
2019-02-24T20:01:13.566Z,17.20
2019-02-24T20:03:40.401Z,18.30
2019-02-24T20:06:06.906Z,18.67
2019-02-24T20:08:33.529Z,19.93
2019-02-24T20:11:01.879Z,19.43
2019-02-24T20:13:28.320Z,19.23
2019-02-24T20:15:54.701Z,18.73
2019-02-24T20:18:21.229Z,18.27
2019-02-24T20:20:47.656Z,17.37
2019-02-24T20:23:14.125Z,16.03
2019-02-24T20:25:40.578Z,17.50
2019-02-24T20:28:07.112Z,17.57
2019-02-24T20:30:35.509Z,16.43
2019-02-24T20:33:01.930Z,18.93
2019-02-24T20:35:28.553Z,20.60
2019-02-24T20:37:55.327Z,17.87
2019-02-24T20:40:21.769Z,18.77
2019-02-24T20:42:48.129Z,17.50
2019-02-24T20:45:19.072Z,15.57
2019-02-24T20:47:45.522Z,14.67
2019-02-24T20:50:16.114Z,13.57
2019-02-24T20:52:44.016Z,15.93
2019-02-24T20:55:13.196Z,16.87
2019-02-24T20:57:39.748Z,16.03
2019-02-24T21:00:11.032Z,16.13
2019-02-24T21:02:38.918Z,16.17
2019-02-24T21:05:05.383Z,15.67
2019-02-24T21:07:31.914Z,16.67
2019-02-24T21:09:58.313Z,18.97
2019-02-24T21:12:24.763Z,49.73
2019-02-24T21:14:51.177Z,56.87
2019-02-24T21:17:17.737Z,55.73
2019-02-24T21:19:45.531Z,47.80
2019-02-24T21:22:13.403Z,47.40
2019-02-24T21:24:39.887Z,48.97
2019-02-24T21:27:06.578Z,40.70
2019-02-24T21:29:33.249Z,34.07
2019-02-24T21:32:00.523Z,68.10
2019-02-24T21:34:27.010Z,69.07
2019-02-24T21:36:54.429Z,28.40
2019-02-24T21:39:21.489Z,30.87
2019-02-24T21:41:48.336Z,31.17
2019-02-24T21:44:15.423Z,22.23
2019-02-24T21:46:43.048Z,19.13
2019-02-24T21:49:09.613Z,21.23
2019-02-24T21:51:36.274Z,20.67
2019-02-24T21:54:02.767Z,22.77
2019-02-24T21:56:29.195Z,37.37
2019-02-24T21:58:55.564Z,40.93
2019-02-24T22:01:22.033Z,36.57
2019-02-24T22:03:49.335Z,25.37
2019-02-24T22:06:15.739Z,19.73
2019-02-24T22:08:42.146Z,22.37
2019-02-24T22:11:08.537Z,24.50
2019-02-24T22:13:35.220Z,23.57
2019-02-24T22:16:01.616Z,20.83
2019-02-24T22:18:28.054Z,22.77
2019-02-24T22:20:54.527Z,27.27
2019-02-24T22:23:20.883Z,21.40
2019-02-24T22:25:47.345Z,23.93
2019-02-24T22:28:13.640Z,27.53
2019-02-24T22:30:40.622Z,25.83
2019-02-24T22:33:06.966Z,24.47
2019-02-24T22:35:33.417Z,23.33
2019-02-24T22:37:59.849Z,26.23
2019-02-24T22:40:26.282Z,34.30
2019-02-24T22:42:52.616Z,37.07
2019-02-24T22:45:19.816Z,37.53
2019-02-24T22:47:46.150Z,35.57
2019-02-24T22:50:13.063Z,36.97
2019-02-24T22:52:39.576Z,37.00
2019-02-24T22:55:09.404Z,42.60
2019-02-24T22:57:35.756Z,38.33
2019-02-24T23:00:06.168Z,30.07
2019-02-24T23:02:34.406Z,27.13
2019-02-24T23:05:01.220Z,35.77
2019-02-24T23:07:27.605Z,49.70
2019-02-24T23:09:55.088Z,52.43
2019-02-24T23:12:22.529Z,60.30
2019-02-24T23:14:50.875Z,71.17
2019-02-24T23:17:17.332Z,66.40
2019-02-24T23:19:43.798Z,40.20
2019-02-24T23:22:10.225Z,27.50
2019-02-24T23:24:36.664Z,31.90
2019-02-24T23:27:03.110Z,32.33
2019-02-24T23:29:29.710Z,34.37
2019-02-24T23:31:56.145Z,33.17
2019-02-24T23:34:22.613Z,31.10
2019-02-24T23:36:50.066Z,28.97
2019-02-24T23:39:16.860Z,29.37
2019-02-24T23:41:43.318Z,28.43
2019-02-24T23:44:10.255Z,28.97
2019-02-24T23:46:36.601Z,29.10
2019-02-24T23:49:03.024Z,23.50
2019-02-24T23:51:29.406Z,23.83
2019-02-24T23:53:55.808Z,22.40
2019-02-24T23:56:22.254Z,20.17
2019-02-24T23:58:48.611Z,19.37
